createdAt,value
2024-01-06T00:01:16.412Z,5.43
2024-01-06T00:03:43.714Z,6.28
2024-01-06T00:06:13.805Z,5.20
2024-01-06T00:08:40.340Z,5.18
2024-01-06T00:11:07.014Z,4.35
2024-01-06T00:13:33.542Z,4.20
2024-01-06T00:16:01.267Z,4.25
2024-01-06T00:18:28.502Z,3.67
2024-01-06T00:20:55.204Z,3.90
2024-01-06T00:23:21.815Z,3.15
2024-01-06T00:25:51.833Z,3.13
2024-01-06T00:28:18.304Z,2.88
2024-01-06T00:30:44.959Z,3.55
2024-01-06T00:33:11.704Z,3.22
2024-01-06T00:35:38.414Z,2.95
2024-01-06T00:38:04.891Z,2.70
2024-01-06T00:40:33.381Z,2.58
2024-01-06T00:43:00.290Z,2.88
2024-01-06T00:45:26.862Z,3.40
2024-01-06T00:47:55.751Z,4.15
2024-01-06T00:50:22.395Z,3.63
2024-01-06T00:52:48.938Z,3.55
2024-01-06T00:55:15.486Z,3.20
2024-01-06T00:57:42.093Z,3.88
2024-01-06T01:00:08.926Z,3.30
2024-01-06T01:02:37.990Z,3.67
2024-01-06T01:05:08.358Z,3.45
2024-01-06T01:07:35.182Z,3.22
2024-01-06T01:10:08.449Z,3.63
2024-01-06T01:12:35.016Z,4.32
2024-01-06T01:15:01.698Z,3.83
2024-01-06T01:17:28.257Z,3.28
2024-01-06T01:19:54.854Z,4.70
2024-01-06T01:22:21.485Z,4.05
2024-01-06T01:24:48.083Z,4.60
2024-01-06T01:27:14.615Z,4.43
2024-01-06T01:29:41.162Z,3.78
2024-01-06T01:32:07.800Z,3.88
2024-01-06T01:34:34.587Z,3.45
2024-01-06T01:37:01.301Z,3.42
2024-01-06T01:39:30.508Z,3.20
2024-01-06T01:41:57.112Z,3.42
2024-01-06T01:44:23.571Z,2.90
2024-01-06T01:46:50.248Z,3.03
2024-01-06T01:49:16.934Z,3.67
2024-01-06T01:51:45.435Z,2.97
2024-01-06T01:54:12.097Z,2.28
2024-01-06T01:56:40.763Z,2.17
2024-01-06T01:59:11.872Z,2.35
2024-01-06T02:01:38.880Z,3.10
2024-01-06T02:04:05.574Z,3.55
2024-01-06T02:06:32.130Z,3.80
2024-01-06T02:08:58.898Z,3.83
2024-01-06T02:11:27.064Z,2.75
2024-01-06T02:13:53.505Z,4.93
2024-01-06T02:16:20.012Z,3.50
2024-01-06T02:18:52.529Z,2.75
2024-01-06T02:21:20.668Z,2.63
2024-01-06T02:23:48.155Z,2.85
2024-01-06T02:26:16.004Z,3.05
2024-01-06T02:28:42.575Z,3.05
2024-01-06T02:31:09.117Z,3.72
2024-01-06T02:33:35.716Z,3.80
2024-01-06T02:36:02.171Z,3.05
2024-01-06T02:38:28.596Z,3.80
2024-01-06T02:40:55.102Z,3.45
2024-01-06T02:43:21.664Z,3.33
2024-01-06T02:45:48.434Z,3.55
2024-01-06T02:48:15.094Z,3.38
2024-01-06T02:50:41.653Z,3.10
2024-01-06T02:53:08.099Z,3.45
2024-01-06T02:55:34.562Z,3.28
2024-01-06T02:58:01.013Z,4.30
2024-01-06T03:00:27.533Z,4.72
2024-01-06T03:02:57.028Z,3.58
2024-01-06T03:05:23.610Z,4.38
2024-01-06T03:07:50.241Z,4.00
2024-01-06T03:10:16.812Z,4.03
2024-01-06T03:12:43.485Z,4.50
2024-01-06T03:15:10.147Z,4.68
2024-01-06T03:17:36.812Z,4.88
2024-01-06T03:20:05.067Z,4.50
2024-01-06T03:22:31.724Z,3.45
2024-01-06T03:25:00.700Z,3.72
2024-01-06T03:27:27.290Z,5.18
2024-01-06T03:29:53.766Z,4.50
2024-01-06T03:32:20.308Z,4.88
2024-01-06T03:34:46.890Z,5.18
2024-01-06T03:37:13.490Z,4.53
2024-01-06T03:39:39.990Z,4.43
2024-01-06T03:42:06.728Z,4.97
2024-01-06T03:44:34.744Z,5.88
2024-01-06T03:47:01.193Z,4.75
2024-01-06T03:49:28.249Z,5.15
2024-01-06T03:51:54.990Z,4.60
2024-01-06T03:54:23.969Z,4.15
2024-01-06T03:56:51.092Z,5.82
2024-01-06T03:59:20.376Z,5.03
2024-01-06T04:01:46.834Z,5.35
2024-01-06T04:04:13.899Z,5.07
2024-01-06T04:06:43.278Z,6.32
2024-01-06T04:09:10.623Z,4.75
2024-01-06T04:11:37.092Z,4.45
2024-01-06T04:14:03.521Z,4.32
2024-01-06T04:16:30.216Z,6.00
2024-01-06T04:18:56.858Z,5.45
2024-01-06T04:21:24.207Z,4.18
2024-01-06T04:23:50.666Z,3.92
2024-01-06T04:26:17.209Z,4.85
2024-01-06T04:28:43.704Z,5.88
2024-01-06T04:31:12.276Z,5.03
2024-01-06T04:33:42.356Z,5.18
2024-01-06T04:36:09.211Z,4.13
2024-01-06T04:38:35.763Z,4.90
2024-01-06T04:41:02.337Z,4.90
2024-01-06T04:43:31.768Z,5.55
2024-01-06T04:45:59.157Z,5.70
2024-01-06T04:48:25.885Z,5.75
2024-01-06T04:50:52.480Z,4.80
2024-01-06T04:53:20.932Z,6.43
2024-01-06T04:55:47.416Z,4.80
2024-01-06T04:58:16.650Z,5.03
2024-01-06T05:00:43.385Z,4.57
2024-01-06T05:03:10.085Z,5.28
2024-01-06T05:05:36.784Z,5.28
2024-01-06T05:08:05.944Z,4.35
2024-01-06T05:10:32.498Z,4.47
2024-01-06T05:13:01.637Z,5.15
2024-01-06T05:15:28.325Z,5.22
2024-01-06T05:17:55.030Z,4.75
2024-01-06T05:20:21.560Z,4.10
2024-01-06T05:22:47.985Z,4.28
2024-01-06T05:25:14.643Z,4.07
2024-01-06T05:27:41.223Z,3.60
2024-01-06T05:30:09.244Z,4.15
2024-01-06T05:32:35.768Z,4.55
2024-01-06T05:35:03.918Z,4.85
2024-01-06T05:37:30.637Z,5.05
2024-01-06T05:39:57.252Z,4.10
2024-01-06T05:42:23.771Z,4.25
2024-01-06T05:44:50.310Z,4.20
2024-01-06T05:47:19.701Z,5.57
2024-01-06T05:49:49.286Z,4.20
2024-01-06T05:52:16.453Z,5.05
2024-01-06T05:54:46.243Z,4.13
2024-01-06T05:57:13.103Z,3.92
2024-01-06T05:59:40.232Z,4.70
2024-01-06T06:02:06.719Z,4.93
2024-01-06T06:04:33.234Z,4.47
2024-01-06T06:07:02.372Z,5.88
2024-01-06T06:09:30.243Z,4.10
2024-01-06T06:11:56.873Z,3.60
2024-01-06T06:14:25.755Z,3.28
2024-01-06T06:16:53.818Z,5.00
2024-01-06T06:19:20.406Z,5.13
2024-01-06T06:21:47.786Z,4.05
2024-01-06T06:24:14.595Z,3.80
2024-01-06T06:26:42.357Z,3.45
2024-01-06T06:29:09.134Z,3.47
2024-01-06T06:31:35.796Z,3.78
2024-01-06T06:34:06.212Z,3.72
2024-01-06T06:36:34.788Z,3.20
2024-01-06T06:39:05.432Z,2.85
2024-01-06T06:41:31.966Z,4.60
2024-01-06T06:44:01.718Z,3.90
2024-01-06T06:46:28.279Z,3.90
2024-01-06T06:48:54.730Z,3.75
2024-01-06T06:51:26.041Z,3.67
2024-01-06T06:53:53.269Z,4.07
2024-01-06T06:56:19.791Z,4.90
2024-01-06T06:58:46.218Z,4.57
2024-01-06T07:01:17.873Z,3.60
2024-01-06T07:03:44.660Z,4.25
2024-01-06T07:06:15.780Z,4.28
2024-01-06T07:08:43.148Z,4.43
2024-01-06T07:11:10.404Z,4.38
2024-01-06T07:13:36.808Z,4.47
2024-01-06T07:16:12.002Z,5.18
2024-01-06T07:18:45.019Z,4.70
2024-01-06T07:21:13.506Z,4.03
2024-01-06T07:23:40.060Z,4.60
2024-01-06T07:26:06.594Z,4.38
2024-01-06T07:28:35.144Z,3.65
2024-01-06T07:31:02.009Z,4.00
2024-01-06T07:33:28.881Z,4.30
2024-01-06T07:35:55.420Z,4.43
2024-01-06T07:38:21.892Z,3.90
2024-01-06T07:40:48.282Z,4.03
2024-01-06T07:43:16.332Z,3.85
2024-01-06T07:45:43.192Z,4.20
2024-01-06T07:48:12.402Z,4.50
2024-01-06T07:50:39.366Z,5.30
2024-01-06T07:53:08.605Z,3.85
2024-01-06T07:55:35.121Z,3.60
2024-01-06T07:58:01.596Z,3.60
2024-01-06T08:00:28.133Z,4.18
2024-01-06T08:02:54.657Z,4.65
2024-01-06T08:05:21.155Z,3.97
2024-01-06T08:07:52.172Z,4.53
2024-01-06T08:10:18.814Z,3.47
2024-01-06T08:12:45.360Z,3.58
2024-01-06T08:15:11.912Z,3.92
2024-01-06T08:17:38.766Z,3.95
2024-01-06T08:20:06.095Z,4.10
2024-01-06T08:22:32.581Z,3.67
2024-01-06T08:24:59.062Z,4.13
2024-01-06T08:27:25.695Z,4.85
2024-01-06T08:29:52.287Z,3.72
2024-01-06T08:32:18.955Z,3.92
2024-01-06T08:34:45.498Z,3.95
2024-01-06T08:37:12.002Z,5.82
2024-01-06T08:39:38.457Z,4.15
2024-01-06T08:42:05.284Z,3.53
2024-01-06T08:44:31.788Z,3.85
2024-01-06T08:46:58.270Z,3.65
2024-01-06T08:49:28.182Z,4.50
2024-01-06T08:51:54.855Z,3.80
2024-01-06T08:54:21.559Z,3.97
2024-01-06T08:56:48.411Z,3.88
2024-01-06T08:59:15.113Z,4.32
2024-01-06T09:01:41.649Z,3.70
2024-01-06T09:04:08.583Z,3.42
2024-01-06T09:06:35.454Z,3.47
2024-01-06T09:09:02.023Z,3.90
2024-01-06T09:11:28.465Z,3.75
2024-01-06T09:13:55.162Z,3.72
2024-01-06T09:16:21.683Z,3.45
2024-01-06T09:18:49.028Z,3.60
2024-01-06T09:21:15.586Z,3.42
2024-01-06T09:23:42.136Z,3.75
2024-01-06T09:26:11.700Z,2.90
2024-01-06T09:28:38.231Z,3.30
2024-01-06T09:31:07.878Z,3.22
2024-01-06T09:33:37.440Z,3.42
2024-01-06T09:36:04.264Z,3.35
2024-01-06T09:38:30.662Z,3.20
2024-01-06T09:40:58.607Z,4.43
2024-01-06T09:43:25.089Z,3.10
2024-01-06T09:46:03.054Z,3.45
2024-01-06T09:48:32.292Z,3.75
2024-01-06T09:51:03.243Z,4.65
2024-01-06T09:53:38.494Z,3.40
2024-01-06T09:56:07.679Z,3.67
2024-01-06T09:58:35.573Z,3.95
2024-01-06T10:01:03.155Z,3.40
2024-01-06T10:03:29.873Z,3.92
2024-01-06T10:06:01.599Z,3.80
2024-01-06T10:08:34.040Z,3.75
2024-01-06T10:11:03.627Z,3.58
2024-01-06T10:13:30.129Z,3.78
2024-01-06T10:15:59.642Z,3.70
2024-01-06T10:18:28.308Z,3.78
2024-01-06T10:20:55.067Z,3.63
2024-01-06T10:23:24.376Z,3.00
2024-01-06T10:25:57.786Z,3.90
2024-01-06T10:28:26.522Z,3.13
2024-01-06T10:30:54.948Z,3.72
2024-01-06T10:33:23.224Z,3.50
2024-01-06T10:35:53.594Z,3.63
2024-01-06T10:38:20.298Z,4.57
2024-01-06T10:41:13.886Z,3.28
2024-01-06T10:43:44.604Z,3.83
2024-01-06T10:46:12.448Z,3.95
2024-01-06T10:48:46.887Z,3.97
2024-01-06T10:51:16.270Z,3.05
2024-01-06T10:53:43.811Z,3.63
2024-01-06T10:56:13.908Z,3.70
2024-01-06T10:58:53.002Z,3.60
2024-01-06T11:01:27.933Z,3.20
2024-01-06T11:03:58.557Z,3.35
2024-01-06T11:06:25.703Z,3.35
2024-01-06T11:09:02.309Z,3.92
2024-01-06T11:11:29.386Z,3.08
2024-01-06T11:14:25.812Z,3.22
2024-01-06T11:16:53.954Z,3.63
2024-01-06T11:19:36.970Z,3.92
2024-01-06T11:22:40.869Z,3.53
2024-01-06T11:25:09.538Z,3.83
2024-01-06T11:27:37.168Z,4.40
2024-01-06T11:30:06.978Z,3.70
2024-01-06T11:32:40.186Z,4.55
2024-01-06T11:35:14.810Z,4.72
2024-01-06T11:37:44.577Z,4.95
2024-01-06T11:40:15.396Z,4.43
2024-01-06T11:42:46.877Z,4.57
2024-01-06T11:45:20.860Z,4.70
2024-01-06T11:47:58.122Z,4.13
2024-01-06T11:50:24.825Z,4.93
2024-01-06T11:52:52.201Z,4.00
2024-01-06T11:55:19.899Z,4.07
2024-01-06T11:57:46.708Z,4.72
2024-01-06T12:00:15.668Z,4.00
2024-01-06T12:02:42.350Z,4.03
2024-01-06T12:05:19.869Z,4.63
2024-01-06T12:08:12.926Z,3.50
2024-01-06T12:10:40.125Z,4.05
2024-01-06T12:13:10.226Z,4.03
2024-01-06T12:15:38.706Z,4.13
2024-01-06T12:18:06.340Z,4.35
2024-01-06T12:20:36.028Z,4.40
2024-01-06T12:23:05.104Z,3.42
2024-01-06T12:25:38.457Z,4.25
2024-01-06T12:28:06.959Z,3.97
2024-01-06T12:30:36.314Z,4.68
2024-01-06T12:33:03.347Z,5.10
2024-01-06T12:35:31.908Z,5.45
2024-01-06T12:37:58.363Z,5.18
2024-01-06T12:40:24.964Z,5.68
2024-01-06T12:42:51.458Z,5.32
2024-01-06T12:45:18.336Z,5.40
2024-01-06T12:47:45.423Z,5.32
2024-01-06T12:50:12.210Z,5.00
2024-01-06T12:52:42.434Z,5.93
2024-01-06T12:55:09.505Z,4.72
2024-01-06T12:57:42.102Z,5.20
2024-01-06T13:00:13.321Z,5.38
2024-01-06T13:02:39.984Z,5.93
2024-01-06T13:05:06.654Z,4.95
2024-01-06T13:07:33.316Z,5.55
2024-01-06T13:10:01.044Z,4.90
2024-01-06T13:12:32.239Z,4.50
2024-01-06T13:15:01.976Z,5.05
2024-01-06T13:17:28.558Z,4.80
2024-01-06T13:19:55.137Z,5.45
2024-01-06T13:22:23.227Z,5.47
2024-01-06T13:24:52.296Z,5.28
2024-01-06T13:27:20.368Z,5.35
2024-01-06T13:29:46.947Z,5.55
2024-01-06T13:32:14.838Z,5.55
2024-01-06T13:34:41.666Z,5.32
2024-01-06T13:37:09.096Z,5.20
2024-01-06T13:39:36.722Z,6.00
2024-01-06T13:42:04.727Z,5.15
2024-01-06T13:44:31.174Z,5.65
2024-01-06T13:46:57.639Z,6.05
2024-01-06T13:49:25.487Z,4.85
2024-01-06T13:51:52.118Z,6.60
2024-01-06T13:54:20.254Z,7.13
2024-01-06T13:56:48.724Z,5.70
2024-01-06T13:59:16.460Z,5.18
2024-01-06T14:01:46.188Z,5.20
2024-01-06T14:04:14.361Z,5.68
2024-01-06T14:06:41.340Z,6.93
2024-01-06T14:09:08.023Z,5.95
2024-01-06T14:11:35.336Z,6.15
2024-01-06T14:14:01.957Z,6.55
2024-01-06T14:16:28.750Z,5.45
2024-01-06T14:18:56.423Z,6.68
2024-01-06T14:21:23.810Z,5.85
2024-01-06T14:23:50.829Z,5.03
2024-01-06T14:26:24.833Z,4.28
2024-01-06T14:28:53.666Z,4.28
2024-01-06T14:31:20.287Z,5.63
2024-01-06T14:33:47.028Z,4.38
2024-01-06T14:36:13.634Z,4.50
2024-01-06T14:38:40.210Z,4.72
2024-01-06T14:41:06.696Z,7.50
2024-01-06T14:43:33.372Z,6.97
2024-01-06T14:46:00.034Z,5.25
2024-01-06T14:48:26.730Z,6.43
2024-01-06T14:50:53.333Z,6.28
2024-01-06T14:53:19.941Z,6.20
2024-01-06T14:55:46.432Z,4.95
2024-01-06T14:58:13.661Z,4.97
2024-01-06T15:00:40.435Z,5.65
2024-01-06T15:03:07.017Z,4.75
2024-01-06T15:05:33.688Z,5.30
2024-01-06T15:08:00.313Z,4.65
2024-01-06T15:10:26.817Z,4.25
2024-01-06T15:12:53.366Z,5.57
2024-01-06T15:15:20.099Z,4.97
2024-01-06T15:17:46.574Z,4.70
2024-01-06T15:20:13.347Z,3.72
2024-01-06T15:22:42.084Z,4.80
2024-01-06T15:25:09.108Z,4.15
2024-01-06T15:27:35.914Z,4.07
2024-01-06T15:30:03.118Z,3.10
2024-01-06T15:32:29.618Z,3.00
2024-01-06T15:34:56.199Z,3.90
2024-01-06T15:37:23.734Z,4.70
2024-01-06T15:39:50.310Z,3.63
2024-01-06T15:42:16.945Z,7.03
2024-01-06T15:44:43.448Z,4.60
2024-01-06T15:47:09.939Z,4.75
2024-01-06T15:49:36.459Z,5.05
2024-01-06T15:52:04.629Z,3.20
2024-01-06T15:54:32.365Z,3.80
2024-01-06T15:56:59.048Z,3.83
2024-01-06T15:59:25.854Z,3.50
2024-01-06T16:01:52.408Z,3.63
2024-01-06T16:04:19.011Z,4.15
2024-01-06T16:06:46.808Z,3.67
2024-01-06T16:09:13.550Z,4.28
2024-01-06T16:11:40.706Z,4.38
2024-01-06T16:14:07.262Z,3.38
2024-01-06T16:16:33.862Z,3.90
2024-01-06T16:19:00.556Z,3.92
2024-01-06T16:21:27.886Z,3.40
2024-01-06T16:23:54.464Z,3.55
2024-01-06T16:26:21.203Z,3.72
2024-01-06T16:28:47.666Z,4.38
2024-01-06T16:31:14.320Z,4.63
2024-01-06T16:33:41.004Z,3.45
2024-01-06T16:36:11.599Z,4.07
2024-01-06T16:38:39.132Z,4.25
2024-01-06T16:41:05.647Z,4.07
2024-01-06T16:43:42.410Z,3.95
2024-01-06T16:46:13.819Z,4.32
2024-01-06T16:48:40.578Z,3.95
2024-01-06T16:51:07.853Z,4.55
2024-01-06T16:53:34.435Z,4.68
2024-01-06T16:56:01.038Z,4.47
2024-01-06T16:58:27.905Z,4.97
2024-01-06T17:00:54.872Z,4.88
2024-01-06T17:03:21.547Z,4.40
2024-01-06T17:05:48.216Z,5.40
2024-01-06T17:08:15.361Z,4.97
2024-01-06T17:10:42.466Z,4.68
2024-01-06T17:13:09.067Z,3.67
2024-01-06T17:15:36.803Z,4.07
2024-01-06T17:18:07.565Z,4.95
2024-01-06T17:20:39.185Z,4.43
2024-01-06T17:23:06.490Z,4.10
2024-01-06T17:25:33.185Z,4.80
2024-01-06T17:27:59.839Z,5.20
2024-01-06T17:30:26.921Z,4.78
2024-01-06T17:32:56.265Z,4.55
2024-01-06T17:35:23.139Z,4.50
2024-01-06T17:37:49.637Z,4.45
2024-01-06T17:40:16.472Z,3.92
2024-01-06T17:42:43.194Z,4.70
2024-01-06T17:45:10.092Z,5.03
2024-01-06T17:47:38.436Z,4.60
2024-01-06T17:50:08.404Z,4.88
2024-01-06T17:52:34.877Z,4.60
2024-01-06T17:55:01.423Z,4.45
2024-01-06T17:57:29.207Z,4.40
2024-01-06T17:59:58.102Z,6.25
2024-01-06T18:02:25.534Z,5.07
2024-01-06T18:04:52.604Z,5.90
2024-01-06T18:07:22.775Z,6.07
2024-01-06T18:09:49.866Z,6.63
2024-01-06T18:12:19.094Z,5.57
2024-01-06T18:14:45.610Z,5.25
2024-01-06T18:17:12.191Z,5.40
2024-01-06T18:19:39.240Z,5.07
2024-01-06T18:22:06.254Z,5.15
2024-01-06T18:24:32.892Z,8.13
2024-01-06T18:26:59.993Z,5.78
2024-01-06T18:29:29.791Z,7.03
2024-01-06T18:31:56.372Z,14.07
2024-01-06T18:34:26.083Z,9.82
2024-01-06T18:36:52.594Z,7.97
2024-01-06T18:39:19.792Z,8.27
2024-01-06T18:41:46.360Z,5.80
2024-01-06T18:44:12.827Z,5.30
2024-01-06T18:46:39.729Z,5.30
2024-01-06T18:49:07.397Z,7.18
2024-01-06T18:51:38.496Z,6.57
2024-01-06T18:54:10.143Z,4.80
2024-01-06T18:56:39.194Z,5.32
2024-01-06T18:59:05.729Z,5.25
2024-01-06T19:01:32.444Z,6.63
2024-01-06T19:03:59.239Z,5.75
2024-01-06T19:06:25.739Z,5.68
2024-01-06T19:08:52.332Z,7.35
2024-01-06T19:11:18.785Z,6.32
2024-01-06T19:13:45.774Z,5.68
2024-01-06T19:16:12.488Z,6.00
2024-01-06T19:18:39.083Z,6.53
2024-01-06T19:21:07.962Z,6.55
2024-01-06T19:23:34.606Z,6.40
2024-01-06T19:26:03.157Z,6.55
2024-01-06T19:28:29.712Z,6.20
2024-01-06T19:30:58.482Z,6.07
2024-01-06T19:33:25.412Z,6.50
2024-01-06T19:35:51.945Z,5.25
2024-01-06T19:38:20.499Z,6.18
2024-01-06T19:40:47.300Z,5.60
2024-01-06T19:43:13.705Z,5.80
2024-01-06T19:45:40.180Z,5.68
2024-01-06T19:48:11.178Z,6.10
2024-01-06T19:50:38.253Z,5.82
2024-01-06T19:53:05.015Z,6.35
2024-01-06T19:55:31.492Z,7.35
2024-01-06T19:57:58.024Z,4.63
2024-01-06T20:00:25.377Z,5.82
2024-01-06T20:02:51.895Z,5.70
2024-01-06T20:05:19.774Z,5.55
2024-01-06T20:07:46.391Z,6.47
2024-01-06T20:10:12.989Z,5.65
2024-01-06T20:12:40.172Z,6.45
2024-01-06T20:15:10.203Z,6.35
2024-01-06T20:17:38.210Z,6.57
2024-01-06T20:20:08.221Z,5.82
2024-01-06T20:22:34.992Z,6.18
2024-01-06T20:25:02.652Z,6.82
2024-01-06T20:27:29.294Z,7.00
2024-01-06T20:29:55.755Z,8.63
2024-01-06T20:32:22.484Z,8.97
2024-01-06T20:34:49.164Z,8.02
2024-01-06T20:37:15.751Z,7.95
2024-01-06T20:39:42.873Z,9.30
2024-01-06T20:42:09.419Z,8.65
2024-01-06T20:44:36.948Z,10.55
2024-01-06T20:47:03.585Z,9.60
2024-01-06T20:49:31.718Z,9.48
2024-01-06T20:51:58.571Z,9.98
2024-01-06T20:54:25.403Z,9.32
2024-01-06T20:56:53.684Z,9.30
2024-01-06T20:59:20.324Z,8.67
2024-01-06T21:01:46.881Z,9.30
2024-01-06T21:04:13.444Z,8.40
2024-01-06T21:06:39.995Z,9.77
2024-01-06T21:09:06.540Z,8.90
2024-01-06T21:11:33.064Z,9.88
2024-01-06T21:13:59.482Z,9.90
2024-01-06T21:16:25.989Z,9.63
2024-01-06T21:18:53.000Z,9.73
2024-01-06T21:21:19.954Z,9.43
2024-01-06T21:23:49.186Z,9.18
2024-01-06T21:26:16.526Z,9.07
2024-01-06T21:28:43.090Z,9.68
2024-01-06T21:31:10.139Z,8.65
2024-01-06T21:33:37.199Z,9.23
2024-01-06T21:36:03.949Z,8.52
2024-01-06T21:38:30.436Z,8.17
2024-01-06T21:40:56.919Z,8.20
2024-01-06T21:43:23.430Z,7.10
2024-01-06T21:45:49.936Z,8.23
2024-01-06T21:48:16.703Z,7.32
2024-01-06T21:50:46.571Z,6.82
2024-01-06T21:53:13.053Z,7.60
2024-01-06T21:55:39.521Z,8.65
2024-01-06T21:58:06.018Z,7.18
2024-01-06T22:00:37.980Z,7.50
2024-01-06T22:03:05.463Z,7.45
2024-01-06T22:05:33.292Z,6.27
2024-01-06T22:07:59.723Z,7.73
2024-01-06T22:10:33.685Z,7.97
2024-01-06T22:13:01.793Z,8.07
2024-01-06T22:15:28.705Z,7.65
2024-01-06T22:17:56.522Z,7.95
2024-01-06T22:20:23.533Z,8.57
2024-01-06T22:22:50.035Z,7.50
2024-01-06T22:25:16.751Z,6.90
2024-01-06T22:27:43.500Z,8.00
2024-01-06T22:30:11.921Z,9.50
2024-01-06T22:32:38.908Z,9.10
2024-01-06T22:35:08.232Z,8.00
2024-01-06T22:37:34.713Z,7.57
2024-01-06T22:40:01.233Z,7.93
2024-01-06T22:42:28.135Z,7.43
2024-01-06T22:44:54.941Z,8.17
2024-01-06T22:47:21.900Z,8.23
2024-01-06T22:49:48.495Z,6.87
2024-01-06T22:52:15.408Z,6.97
2024-01-06T22:54:43.259Z,9.17
2024-01-06T22:57:09.734Z,6.83
2024-01-06T22:59:36.190Z,6.70
2024-01-06T23:02:02.712Z,7.73
2024-01-06T23:04:29.381Z,7.73
2024-01-06T23:06:57.233Z,8.10
2024-01-06T23:09:23.682Z,8.00
2024-01-06T23:11:50.145Z,7.60
2024-01-06T23:14:16.730Z,8.50
2024-01-06T23:16:44.272Z,7.80
2024-01-06T23:19:11.491Z,7.77
2024-01-06T23:21:38.180Z,7.60
2024-01-06T23:24:05.642Z,8.45
2024-01-06T23:26:32.093Z,8.75
2024-01-06T23:28:58.539Z,7.93
2024-01-06T23:31:25.077Z,8.13
2024-01-06T23:33:51.906Z,7.93
2024-01-06T23:36:18.437Z,7.53
2024-01-06T23:38:44.995Z,8.95
2024-01-06T23:41:13.569Z,7.83
2024-01-06T23:43:40.013Z,8.05
2024-01-06T23:46:06.525Z,8.63
2024-01-06T23:48:33.136Z,7.87
2024-01-06T23:50:59.616Z,8.82
2024-01-06T23:53:26.080Z,8.67
2024-01-06T23:55:52.547Z,9.47
2024-01-06T23:58:19.060Z,9.20
